Time;durP1;ratioP1;P1;durP2;ratioP2;P2;SDS_P1;SDS_P2;PMS_P1;PMS_P2;Temp;Humidity;BMP_temperature;BMP_pressure;BME280_temperature;BME280_humidity;BME280_pressure;Samples;Min_cycle;Max_cycle;Signal;HPM_P1;HPM_P2
2022/06/19 00:01:03;;;;;;;9.32;3.25;;;25.70;92.80;;;;;;7393000;19;20222;-77
2022/06/19 00:03:42;;;;;;;11.13;3.38;;;25.60;92.80;;;;;;7393999;19;20158;-76
2022/06/19 00:06:09;;;;;;;9.30;3.70;;;25.30;93.10;;;;;;7395827;19;20163;-77
2022/06/19 00:08:35;;;;;;;8.60;4.00;;;25.50;93.20;;;;;;7394621;19;20247;-77
2022/06/19 00:11:02;;;;;;;10.25;4.60;;;25.40;93.30;;;;;;7395112;19;20142;-78
2022/06/19 00:13:28;;;;;;;12.43;4.72;;;25.40;93.30;;;;;;7397027;19;20134;-78
2022/06/19 00:15:55;;;;;;;13.13;4.78;;;25.40;93.50;;;;;;7392405;19;20118;-78
2022/06/19 00:18:21;;;;;;;12.18;4.18;;;25.50;93.50;;;;;;7391447;19;20214;-75
2022/06/19 00:20:47;;;;;;;7.35;3.80;;;25.50;93.60;;;;;;7392283;19;20167;-78
2022/06/19 00:23:13;;;;;;;12.38;3.67;;;25.30;93.70;;;;;;7391607;19;20150;-78
2022/06/19 00:25:39;;;;;;;8.35;3.50;;;25.20;94.00;;;;;;7393470;19;20166;-75
2022/06/19 00:28:06;;;;;;;12.00;3.72;;;25.00;94.30;;;;;;7392294;19;20131;-79
2022/06/19 00:30:32;;;;;;;11.20;4.15;;;24.90;94.60;;;;;;7392820;19;20135;-78
2022/06/19 00:32:59;;;;;;;6.95;3.47;;;24.80;94.80;;;;;;7394288;19;20135;-75
2022/06/19 00:35:29;;;;;;;9.43;4.22;;;24.80;94.70;;;;;;7392035;19;20198;-75
2022/06/19 00:37:56;;;;;;;10.18;3.13;;;24.70;95.10;;;;;;7391903;19;20134;-74
2022/06/19 00:40:25;;;;;;;11.50;3.53;;;24.70;95.20;;;;;;7386084;19;20150;-75
2022/06/19 00:42:51;;;;;;;7.15;3.28;;;24.70;95.10;;;;;;7391947;19;20677;-77
2022/06/19 00:45:39;;;;;;;9.30;3.35;;;24.60;95.40;;;;;;7394134;19;20186;-75
2022/06/19 00:48:20;;;;;;;8.48;3.30;;;24.70;95.50;;;;;;7390477;19;20130;-77
2022/06/19 00:50:51;;;;;;;12.25;4.00;;;24.60;95.60;;;;;;7388255;19;20151;-78
2022/06/19 00:53:20;;;;;;;6.13;3.30;;;24.60;95.70;;;;;;7393618;19;20164;-75
2022/06/19 00:55:49;;;;;;;9.13;3.17;;;24.60;95.60;;;;;;7390783;19;20135;-78
2022/06/19 00:58:36;;;;;;;6.82;3.40;;;24.70;95.50;;;;;;7389722;19;20154;-75
2022/06/19 01:01:07;;;;;;;9.02;3.88;;;24.80;95.40;;;;;;7394229;19;20545;-75
2022/06/19 01:03:49;;;;;;;6.60;3.10;;;24.80;95.10;;;;;;7395366;19;20473;-79
2022/06/19 01:06:14;;;;;;;9.25;3.67;;;24.70;94.90;;;;;;7391030;19;20151;-79
2022/06/19 01:08:40;;;;;;;9.82;3.58;;;24.50;95.10;;;;;;7389622;19;20130;-78
2022/06/19 01:11:08;;;;;;;12.80;3.65;;;24.70;95.60;;;;;;7394208;19;20131;-76
2022/06/19 01:13:36;;;;;;;9.90;5.28;;;24.60;95.30;;;;;;7390650;19;20138;-79
2022/06/19 01:16:04;;;;;;;7.75;3.95;;;24.80;95.00;;;;;;7394434;19;20218;-75
2022/06/19 01:18:33;;;;;;;11.43;3.92;;;24.90;94.70;;;;;;7393056;19;20153;-76
2022/06/19 01:21:16;;;;;;;8.30;3.20;;;25.10;95.10;;;;;;7388453;19;20227;-78
2022/06/19 01:24:36;;;;;;;7.25;3.05;;;25.00;94.70;;;;;;7391276;19;20153;-75
2022/06/19 01:27:05;;;;;;;10.82;2.97;;;25.10;94.30;;;;;;7389895;19;20159;-74
2022/06/19 01:29:33;;;;;;;9.07;4.35;;;25.10;94.20;;;;;;7389619;19;20134;-74
2022/06/19 01:32:02;;;;;;;7.40;2.92;;;25.20;93.90;;;;;;7392972;19;20138;-74
2022/06/19 01:34:36;;;;;;;10.07;3.25;;;25.20;93.60;;;;;;7395033;19;20169;-75
2022/06/19 01:37:12;;;;;;;7.63;3.33;;;25.20;93.70;;;;;;7392650;19;20127;-77
2022/06/19 01:39:42;;;;;;;7.53;2.40;;;25.10;93.70;;;;;;7390923;19;20146;-78
2022/06/19 01:42:08;;;;;;;6.07;2.65;;;24.70;93.70;;;;;;7391613;19;20140;-74
2022/06/19 01:44:36;;;;;;;6.10;2.95;;;24.30;93.90;;;;;;7391806;19;20134;-78
2022/06/19 01:47:03;;;;;;;5.88;2.30;;;24.30;94.30;;;;;;7386662;19;20135;-77
2022/06/19 01:49:31;;;;;;;8.38;3.25;;;24.10;94.40;;;;;;7393904;19;20634;-77
2022/06/19 01:51:58;;;;;;;9.93;3.30;;;24.20;94.80;;;;;;7393378;19;20147;-75
2022/06/19 01:54:29;;;;;;;6.40;2.47;;;24.30;94.60;;;;;;7389656;19;20140;-74
2022/06/19 01:56:57;;;;;;;9.60;2.83;;;24.40;94.30;;;;;;7391114;19;20586;-76
2022/06/19 01:59:27;;;;;;;10.85;3.22;;;24.30;94.30;;;;;;7392030;19;20590;-77
2022/06/19 02:01:54;;;;;;;9.00;2.95;;;24.20;94.70;;;;;;7389279;19;20138;-78
2022/06/19 02:04:21;;;;;;;7.10;2.60;;;24.30;94.60;;;;;;7389254;19;20150;-75
2022/06/19 02:06:51;;;;;;;9.18;2.58;;;24.40;94.40;;;;;;7387558;19;20492;-76
2022/06/19 02:09:21;;;;;;;6.15;3.53;;;24.30;94.50;;;;;;7391111;19;20178;-75
2022/06/19 02:11:47;;;;;;;6.60;2.30;;;24.50;94.60;;;;;;7395974;19;20162;-78
2022/06/19 02:14:14;;;;;;;6.68;2.80;;;24.60;94.60;;;;;;7388587;19;20163;-76
2022/06/19 02:16:42;;;;;;;8.25;3.25;;;24.60;94.20;;;;;;7391863;19;20258;-76
2022/06/19 02:19:09;;;;;;;9.88;3.00;;;24.60;94.00;;;;;;7387599;19;20180;-76
2022/06/19 02:21:38;;;;;;;9.10;2.70;;;24.70;94.30;;;;;;7388532;19;20146;-78
2022/06/19 02:24:05;;;;;;;12.95;2.97;;;24.70;93.80;;;;;;7390370;19;20134;-79
2022/06/19 02:26:36;;;;;;;7.57;3.10;;;24.80;93.80;;;;;;7385695;19;20150;-77
2022/06/19 02:29:03;;;;;;;9.23;3.05;;;24.80;93.80;;;;;;7391700;19;20171;-77
2022/06/19 02:31:32;;;;;;;8.88;2.88;;;24.80;93.70;;;;;;7388132;19;20514;-78
2022/06/19 02:34:01;;;;;;;7.20;2.63;;;24.80;93.60;;;;;;7389155;19;20174;-75
2022/06/19 02:36:35;;;;;;;5.28;2.33;;;24.80;93.70;;;;;;7387343;19;20139;-78
2022/06/19 02:39:24;;;;;;;8.90;2.38;;;24.60;93.30;;;;;;7386505;19;20146;-77
2022/06/19 02:42:02;;;;;;;10.45;2.80;;;24.40;93.60;;;;;;7390449;19;20151;-77
2022/06/19 02:44:40;;;;;;;7.95;2.50;;;24.50;93.50;;;;;;7389471;19;20150;-78
2022/06/19 02:47:07;;;;;;;11.38;3.00;;;24.40;93.90;;;;;;7389371;19;20150;-79
2022/06/19 02:49:34;;;;;;;8.77;2.85;;;24.50;93.80;;;;;;7391333;19;20548;-78
2022/06/19 02:52:01;;;;;;;5.60;2.67;;;24.50;93.30;;;;;;7387196;19;20138;-78
2022/06/19 02:54:27;;;;;;;7.68;2.92;;;24.50;93.50;;;;;;7390782;19;20137;-78
2022/06/19 02:56:53;;;;;;;8.18;2.67;;;24.60;93.70;;;;;;7389083;19;20219;-79
2022/06/19 02:59:19;;;;;;;6.15;2.63;;;24.70;93.40;;;;;;7390797;19;20150;-75
2022/06/19 03:01:44;;;;;;;4.72;2.85;;;24.70;93.80;;;;;;7389551;19;20939;-76
2022/06/19 03:04:20;;;;;;;10.50;2.58;;;24.60;93.80;;;;;;7385825;19;20142;-75
2022/06/19 03:06:45;;;;;;;7.75;2.90;;;24.30;93.90;;;;;;7387184;19;20150;-75
2022/06/19 03:09:11;;;;;;;6.10;2.70;;;24.20;94.00;;;;;;7386986;19;20147;-75
2022/06/19 03:11:37;;;;;;;11.18;2.92;;;24.30;94.10;;;;;;7389837;19;20154;-77
2022/06/19 03:14:03;;;;;;;5.95;2.20;;;24.30;94.20;;;;;;7389870;19;21284;-75
2022/06/19 03:16:29;;;;;;;8.70;2.25;;;24.10;94.20;;;;;;7396208;19;20138;-78
2022/06/19 03:18:55;;;;;;;5.82;2.42;;;23.80;94.60;;;;;;7394422;19;20138;-75
2022/06/19 03:21:21;;;;;;;5.60;2.30;;;24.00;94.70;;;;;;7393713;19;20199;-75
2022/06/19 03:23:47;;;;;;;5.57;2.75;;;24.20;94.40;;;;;;7395975;19;20226;-74
2022/06/19 03:26:12;;;;;;;7.22;3.25;;;24.30;94.50;;;;;;7393872;19;20143;-77
2022/06/19 03:28:38;;;;;;;5.88;2.63;;;24.30;94.30;;;;;;7394142;19;20143;-75
2022/06/19 03:31:04;;;;;;;8.70;3.10;;;24.30;94.70;;;;;;7394469;19;20131;-75
2022/06/19 03:33:30;;;;;;;7.47;2.78;;;24.30;95.60;;;;;;7392115;19;20147;-79
2022/06/19 03:35:55;;;;;;;7.93;2.92;;;24.30;95.60;;;;;;7396673;19;20158;-77
2022/06/19 03:38:21;;;;;;;10.73;3.72;;;24.20;95.80;;;;;;7391574;19;20245;-78
2022/06/19 03:40:47;;;;;;;10.07;2.90;;;24.20;96.00;;;;;;7394126;19;20234;-78
2022/06/19 03:43:12;;;;;;;11.18;3.08;;;24.30;96.40;;;;;;7393597;19;20159;-75
2022/06/19 03:45:39;;;;;;;9.35;2.78;;;23.90;96.80;;;;;;7394902;19;20145;-75
2022/06/19 03:48:05;;;;;;;9.38;3.30;;;23.50;97.50;;;;;;7392099;19;20166;-78
2022/06/19 03:50:31;;;;;;;10.73;3.35;;;23.70;97.50;;;;;;7398513;19;20149;-77
2022/06/19 03:52:56;;;;;;;9.52;3.22;;;23.70;97.20;;;;;;7395023;19;20143;-78
2022/06/19 03:55:22;;;;;;;7.32;2.90;;;23.90;97.20;;;;;;7392975;19;20773;-78
2022/06/19 03:57:48;;;;;;;4.28;2.47;;;24.00;97.10;;;;;;7394079;19;20149;-76
2022/06/19 04:00:16;;;;;;;7.60;2.90;;;23.60;97.20;;;;;;7390701;19;20497;-77
2022/06/19 04:02:43;;;;;;;6.82;2.70;;;23.50;97.90;;;;;;7393522;19;20145;-75
2022/06/19 04:05:11;;;;;;;10.05;2.60;;;23.50;97.90;;;;;;7390227;19;20195;-75
2022/06/19 04:07:47;;;;;;;6.85;2.63;;;23.60;97.50;;;;;;7396514;19;20143;-74
2022/06/19 04:10:15;;;;;;;9.90;2.72;;;23.70;97.70;;;;;;7392794;19;20162;-75
2022/06/19 04:12:41;;;;;;;6.35;2.28;;;23.90;97.50;;;;;;7393401;19;20146;-75
2022/06/19 04:15:09;;;;;;;9.48;2.75;;;23.90;97.50;;;;;;7396190;19;20666;-77
2022/06/19 04:17:36;;;;;;;8.60;3.53;;;24.00;97.20;;;;;;7393030;19;20605;-75
2022/06/19 04:20:02;;;;;;;7.10;3.20;;;24.10;97.30;;;;;;7392148;19;20573;-78
2022/06/19 04:22:28;;;;;;;10.95;3.38;;;24.10;97.60;;;;;;7390351;19;20150;-76
2022/06/19 04:24:54;;;;;;;7.07;3.17;;;24.20;98.00;;;;;;7389515;19;20138;-77
2022/06/19 04:27:20;;;;;;;8.00;3.10;;;24.30;98.00;;;;;;7391154;19;20158;-78
2022/06/19 04:29:45;;;;;;;7.43;3.22;;;24.30;98.20;;;;;;7390530;19;20617;-75
2022/06/19 04:32:12;;;;;;;7.35;3.38;;;24.20;98.20;;;;;;7394291;19;20139;-74
2022/06/19 04:34:38;;;;;;;8.85;3.00;;;24.30;98.10;;;;;;7392370;19;20142;-78
2022/06/19 04:37:04;;;;;;;6.65;2.97;;;24.30;97.90;;;;;;7392346;19;20226;-75
2022/06/19 04:39:30;;;;;;;8.30;3.45;;;24.30;98.00;;;;;;7390882;19;20131;-78
2022/06/19 04:41:55;;;;;;;5.32;2.80;;;24.40;98.10;;;;;;7394015;19;20131;-76
2022/06/19 04:44:21;;;;;;;8.55;3.05;;;24.50;98.00;;;;;;7392278;19;20579;-77
2022/06/19 04:46:47;;;;;;;7.05;3.00;;;24.40;98.00;;;;;;7392007;19;20165;-75
2022/06/19 04:49:14;;;;;;;8.07;3.40;;;24.30;98.30;;;;;;7393054;19;20150;-77
2022/06/19 04:51:40;;;;;;;6.90;2.90;;;24.40;98.40;;;;;;7390819;19;20638;-75
2022/06/19 04:54:07;;;;;;;7.55;3.92;;;24.30;98.30;;;;;;7390057;19;20138;-76
2022/06/19 04:56:33;;;;;;;9.32;3.33;;;24.30;98.40;;;;;;7390963;19;20519;-77
2022/06/19 04:58:59;;;;;;;7.13;2.60;;;24.20;98.80;;;;;;7391700;19;20142;-76
2022/06/19 05:01:26;;;;;;;6.00;2.60;;;24.10;98.60;;;;;;7390404;19;20271;-78
2022/06/19 05:03:54;;;;;;;7.95;2.55;;;24.20;98.70;;;;;;7391840;19;20154;-76
2022/06/19 05:06:20;;;;;;;5.15;2.28;;;24.10;99.40;;;;;;7391869;19;20157;-78
2022/06/19 05:08:46;;;;;;;10.07;2.90;;;24.20;99.30;;;;;;7390649;19;20621;-76
2022/06/19 05:11:12;;;;;;;9.52;2.92;;;24.30;99.00;;;;;;7393705;19;20210;-79
2022/06/19 05:13:38;;;;;;;8.80;2.35;;;24.30;99.00;;;;;;7391451;19;20138;-79
2022/06/19 05:16:16;;;;;;;10.98;3.03;;;24.30;99.40;;;;;;7392732;19;20138;-77
2022/06/19 05:18:43;;;;;;;5.45;2.60;;;24.30;99.80;;;;;;7391576;19;20513;-79
2022/06/19 05:21:10;;;;;;;8.20;2.60;;;24.40;99.40;;;;;;7389961;19;20194;-76
2022/06/19 05:23:42;;;;;;;10.90;2.90;;;24.50;99.50;;;;;;7389300;19;20134;-78
2022/06/19 05:26:24;;;;;;;7.30;2.72;;;24.50;99.20;;;;;;7390069;19;20139;-77
2022/06/19 05:28:52;;;;;;;5.80;2.70;;;24.50;99.70;;;;;;7391083;19;20143;-75
2022/06/19 05:31:18;;;;;;;4.25;2.10;;;24.50;98.80;;;;;;7389184;19;20150;-77
2022/06/19 05:33:44;;;;;;;6.63;2.88;;;24.60;98.60;;;;;;7392084;19;20135;-78
2022/06/19 05:36:10;;;;;;;6.50;2.95;;;24.60;98.70;;;;;;7388683;19;20561;-78
2022/06/19 05:38:36;;;;;;;9.32;2.95;;;24.50;98.90;;;;;;7389133;19;20227;-75
2022/06/19 05:41:02;;;;;;;8.90;2.45;;;24.70;97.20;;;;;;7392182;19;20594;-78
2022/06/19 05:43:31;;;;;;;8.80;2.60;;;25.00;97.00;;;;;;7391547;19;20131;-74
2022/06/19 05:45:59;;;;;;;8.80;2.65;;;25.30;96.60;;;;;;7388253;19;20154;-75
2022/06/19 05:48:26;;;;;;;12.77;2.80;;;25.30;96.40;;;;;;7390893;19;20130;-77
2022/06/19 05:51:12;;;;;;;8.07;2.67;;;25.30;96.50;;;;;;7393149;19;20135;-79
2022/06/19 05:53:44;;;;;;;10.73;2.30;;;25.30;96.40;;;;;;7388179;19;20126;-75
2022/06/19 05:56:11;;;;;;;6.35;2.28;;;25.40;95.90;;;;;;7388809;19;20155;-78
2022/06/19 05:58:37;;;;;;;6.40;2.65;;;25.50;96.10;;;;;;7390322;19;20148;-75
2022/06/19 06:01:04;;;;;;;7.72;2.50;;;25.30;97.50;;;;;;7387927;19;20150;-78
2022/06/19 06:03:30;;;;;;;7.35;2.38;;;25.20;97.30;;;;;;7387774;19;20654;-75
2022/06/19 06:06:01;;;;;;;6.88;2.28;;;25.10;98.50;;;;;;7392434;19;20156;-78
2022/06/19 06:08:28;;;;;;;7.07;2.22;;;25.10;98.10;;;;;;7392006;19;20149;-75
2022/06/19 06:10:54;;;;;;;7.65;2.70;;;25.20;98.10;;;;;;7390252;19;20138;-78
2022/06/19 06:13:20;;;;;;;6.70;3.30;;;25.40;98.50;;;;;;7389353;19;20142;-79
2022/06/19 06:15:46;;;;;;;7.88;2.85;;;26.20;96.70;;;;;;7391830;19;20138;-79
2022/06/19 06:18:13;;;;;;;8.15;2.40;;;27.00;96.10;;;;;;7386068;19;20134;-76
2022/06/19 06:20:39;;;;;;;8.95;2.53;;;27.40;95.10;;;;;;7386895;19;20194;-77
2022/06/19 06:23:04;;;;;;;9.35;2.50;;;27.90;94.90;;;;;;7390531;19;20152;-76
2022/06/19 06:25:30;;;;;;;8.82;2.72;;;28.60;94.10;;;;;;7390189;19;20134;-75
2022/06/19 06:27:56;;;;;;;8.10;3.85;;;29.30;93.20;;;;;;7390326;19;20798;-76
2022/06/19 06:30:22;;;;;;;9.93;3.50;;;29.60;92.40;;;;;;7384477;19;20156;-76
2022/06/19 06:32:48;;;;;;;7.32;3.13;;;29.80;91.90;;;;;;7389202;19;20506;-79
2022/06/19 06:35:14;;;;;;;8.45;2.97;;;30.10;91.10;;;;;;7388514;19;20264;-76
2022/06/19 06:37:40;;;;;;;9.43;2.83;;;30.10;90.40;;;;;;7390148;19;20153;-76
2022/06/19 06:40:07;;;;;;;8.70;3.50;;;30.90;87.20;;;;;;7389608;19;20161;-77
2022/06/19 06:42:33;;;;;;;8.25;2.75;;;31.40;86.60;;;;;;7390821;19;20142;-79
2022/06/19 06:44:59;;;;;;;10.38;2.83;;;31.90;86.20;;;;;;7385808;19;20448;-79
2022/06/19 06:47:25;;;;;;;11.90;2.40;;;32.20;84.10;;;;;;7386331;19;20540;-79
2022/06/19 06:49:51;;;;;;;9.35;2.47;;;31.90;85.40;;;;;;7401156;19;20167;-79
2022/06/19 06:52:17;;;;;;;10.55;2.85;;;32.40;81.20;;;;;;7404072;19;20491;-79
2022/06/19 06:54:42;;;;;;;7.07;3.38;;;32.70;80.90;;;;;;7405220;19;20143;-75
2022/06/19 06:57:08;;;;;;;7.85;2.55;;;32.90;81.50;;;;;;7400945;19;20131;-78
2022/06/19 06:59:36;;;;;;;12.98;2.88;;;33.00;80.50;;;;;;7402874;19;20146;-78
2022/06/19 07:02:02;;;;;;;8.13;2.55;;;32.40;79.00;;;;;;7397004;19;20213;-79
2022/06/19 07:04:28;;;;;;;7.32;2.85;;;32.00;80.40;;;;;;7401514;19;20154;-78
2022/06/19 07:06:53;;;;;;;7.78;3.05;;;31.50;81.60;;;;;;7403943;19;20480;-76
2022/06/19 07:09:19;;;;;;;11.07;3.30;;;30.80;84.60;;;;;;7406240;19;20236;-79
2022/06/19 07:11:46;;;;;;;6.82;2.40;;;30.30;85.10;;;;;;7405315;19;20142;-75
2022/06/19 07:14:13;;;;;;;7.30;3.17;;;30.00;85.30;;;;;;7402574;19;20141;-79
2022/06/19 07:16:40;;;;;;;5.18;2.88;;;29.90;87.20;;;;;;7402499;19;20131;-79
2022/06/19 07:19:07;;;;;;;14.82;4.10;;;29.60;89.70;;;;;;7400279;19;20130;-75
2022/06/19 07:21:33;;;;;;;9.30;3.10;;;29.50;88.50;;;;;;7401314;19;20231;-75
2022/06/19 07:23:59;;;;;;;7.15;3.03;;;29.10;90.40;;;;;;7399595;19;20148;-77
2022/06/19 07:26:27;;;;;;;8.32;3.15;;;29.10;90.70;;;;;;7402890;19;20139;-77
2022/06/19 07:28:53;;;;;;;9.15;3.00;;;28.90;91.00;;;;;;7403641;19;20827;-76
2022/06/19 07:31:19;;;;;;;7.65;2.97;;;29.30;91.30;;;;;;7404654;19;20463;-77
2022/06/19 07:33:45;;;;;;;11.57;3.47;;;29.70;90.70;;;;;;7400874;19;20181;-80
2022/06/19 07:36:19;;;;;;;13.93;2.70;;;29.60;90.70;;;;;;7410562;19;20167;-81
2022/06/19 07:38:45;;;;;;;9.85;3.03;;;30.30;90.00;;;;;;7403594;19;20134;-79
2022/06/19 07:41:11;;;;;;;11.98;3.40;;;30.90;88.30;;;;;;7403908;19;20134;-74
2022/06/19 07:43:37;;;;;;;9.55;3.17;;;31.30;88.20;;;;;;7404021;19;20135;-74
2022/06/19 07:46:03;;;;;;;12.93;3.30;;;31.40;86.60;;;;;;7404139;19;20142;-75
2022/06/19 07:51:14;;;;;;;11.75;3.83;;;32.00;85.90;;;;;;7402003;19;20551;-78
2022/06/19 07:53:39;;;;;;;11.13;3.78;;;32.50;85.40;;;;;;7403444;19;20135;-78
2022/06/19 07:56:05;;;;;;;7.70;2.97;;;33.20;84.10;;;;;;7401653;19;20134;-75
2022/06/19 07:58:34;;;;;;;7.80;3.30;;;33.60;83.30;;;;;;7403076;19;20194;-79
2022/06/19 08:01:00;;;;;;;14.48;3.85;;;33.90;82.30;;;;;;7395855;19;20149;-77
2022/06/19 08:03:26;;;;;;;10.27;4.07;;;34.40;81.60;;;;;;7398194;19;20158;-80
2022/06/19 08:05:52;;;;;;;7.18;3.45;;;34.70;81.10;;;;;;7395226;19;20139;-82
2022/06/19 08:08:25;;;;;;;8.20;3.50;;;34.50;80.20;;;;;;7395999;19;20606;-82
2022/06/19 08:10:53;;;;;;;8.48;3.95;;;34.20;81.40;;;;;;7394217;19;20137;-81
2022/06/19 08:13:24;;;;;;;8.18;2.88;;;34.30;82.10;;;;;;7394861;19;20151;-74
2022/06/19 08:15:52;;;;;;;8.25;3.25;;;34.20;81.60;;;;;;7393502;19;20779;-78
2022/06/19 08:18:18;;;;;;;7.60;3.38;;;33.80;82.90;;;;;;7397279;19;20731;-76
2022/06/19 08:20:45;;;;;;;11.15;3.50;;;33.70;84.00;;;;;;7393442;19;20158;-75
2022/06/19 08:23:13;;;;;;;7.47;3.30;;;33.90;83.10;;;;;;7397380;19;20126;-77
2022/06/19 08:25:39;;;;;;;9.30;4.00;;;33.70;83.60;;;;;;7396393;19;20182;-78
2022/06/19 08:28:05;;;;;;;11.75;3.63;;;33.70;84.20;;;;;;7393533;19;20151;-74
2022/06/19 08:30:36;;;;;;;8.20;2.95;;;33.90;84.00;;;;;;7395021;19;20239;-78
2022/06/19 08:33:07;;;;;;;6.47;3.17;;;33.90;83.60;;;;;;7395276;19;20150;-76
2022/06/19 08:35:42;;;;;;;11.77;3.85;;;33.30;86.40;;;;;;7394131;19;20612;-76
2022/06/19 08:38:15;;;;;;;12.00;4.07;;;33.70;85.00;;;;;;7397419;19;20151;-77
2022/06/19 08:41:10;;;;;;;9.77;3.67;;;33.90;82.50;;;;;;7391061;19;20191;-75
2022/06/19 08:44:00;;;;;;;8.13;4.00;;;34.00;82.40;;;;;;7396764;19;20154;-76
2022/06/19 08:46:42;;;;;;;9.95;4.95;;;34.20;82.70;;;;;;7394127;19;20154;-73
2022/06/19 08:49:34;;;;;;;7.38;4.43;;;34.60;79.80;;;;;;7394822;19;20131;-77
2022/06/19 08:52:49;;;;;;;10.27;3.67;;;35.00;80.20;;;;;;7394160;19;20167;-75
2022/06/19 08:55:27;;;;;;;6.70;3.53;;;34.70;80.80;;;;;;7391270;19;20142;-74
2022/06/19 08:58:09;;;;;;;9.25;4.03;;;34.00;82.30;;;;;;7389925;19;20149;-74
2022/06/19 09:01:00;;;;;;;9.23;4.20;;;33.90;83.90;;;;;;7382417;19;20130;-74
2022/06/19 09:06:43;;;;;;;7.65;4.35;;;34.70;74.30;;;;;;7385781;19;20142;-74
2022/06/19 09:09:37;;;;;;;6.78;4.38;;;34.90;71.50;;;;;;7385311;19;20157;-75
2022/06/19 09:12:37;;;;;;;9.15;4.32;;;35.10;68.70;;;;;;7387507;19;20507;-75
2022/06/19 09:15:35;;;;;;;19.67;5.30;;;35.40;67.90;;;;;;7390587;19;20131;-73
2022/06/19 09:18:16;;;;;;;10.75;5.13;;;35.00;65.90;;;;;;7390790;19;20166;-74
2022/06/19 09:20:45;;;;;;;11.82;4.35;;;34.80;66.20;;;;;;7386820;19;20165;-74
2022/06/19 09:23:23;;;;;;;11.77;5.07;;;34.80;65.60;;;;;;7390826;19;20127;-72
2022/06/19 09:26:07;;;;;;;10.65;4.07;;;35.00;65.40;;;;;;7392962;19;20133;-73
2022/06/19 09:28:54;;;;;;;7.38;4.10;;;34.90;66.60;;;;;;7389901;19;20590;-72
2022/06/19 09:31:43;;;;;;;9.82;3.95;;;35.20;65.10;;;;;;7388449;19;20259;-75
2022/06/19 09:34:38;;;;;;;9.38;3.92;;;35.40;64.20;;;;;;7393737;19;20145;-73
2022/06/19 09:37:12;;;;;;;8.20;3.72;;;35.20;63.40;;;;;;7394662;19;20138;-72
2022/06/19 09:39:50;;;;;;;9.30;4.05;;;35.30;63.40;;;;;;7386099;19;20592;-75
2022/06/19 09:42:27;;;;;;;12.10;3.90;;;35.20;62.50;;;;;;7392115;19;20146;-72
2022/06/19 09:45:11;;;;;;;6.32;3.75;;;34.80;62.70;;;;;;7390868;19;20139;-75
2022/06/19 09:47:50;;;;;;;10.40;4.20;;;34.80;64.00;;;;;;7389408;19;20237;-74
2022/06/19 09:50:40;;;;;;;8.98;4.10;;;35.10;62.60;;;;;;7389980;19;20943;-72
2022/06/19 09:53:11;;;;;;;12.07;4.03;;;35.10;63.20;;;;;;7394559;19;20130;-73
2022/06/19 09:55:47;;;;;;;9.10;4.00;;;35.00;61.60;;;;;;7389283;19;20135;-73
2022/06/19 09:58:21;;;;;;;4.43;3.35;;;34.80;61.40;;;;;;7393528;19;20218;-76
2022/06/19 10:00:50;;;;;;;6.57;3.65;;;34.80;61.40;;;;;;7385999;19;20127;-73
2022/06/19 10:03:28;;;;;;;7.70;3.28;;;34.80;60.00;;;;;;7389988;19;20139;-73
2022/06/19 10:06:01;;;;;;;7.97;3.78;;;34.80;60.10;;;;;;7393968;19;20127;-73
2022/06/19 10:08:36;;;;;;;5.95;3.63;;;34.90;59.70;;;;;;7392838;19;20480;-77
2022/06/19 10:11:16;;;;;;;7.07;3.10;;;34.90;59.50;;;;;;7391573;19;20158;-78
2022/06/19 10:13:56;;;;;;;4.53;3.25;;;35.00;59.00;;;;;;7388796;19;20643;-77
2022/06/19 10:16:55;;;;;;;18.83;3.78;;;35.10;58.80;;;;;;7387909;19;20142;-78
2022/06/19 10:19:27;;;;;;;6.60;3.53;;;34.90;59.20;;;;;;7385927;19;20146;-76
2022/06/19 10:25:00;;;;;;;6.43;3.80;;;34.80;60.30;;;;;;7387766;19;20138;-76
2022/06/19 10:27:28;;;;;;;8.40;3.75;;;34.80;60.60;;;;;;7388115;19;20178;-76
2022/06/19 10:30:18;;;;;;;6.45;3.70;;;34.80;61.00;;;;;;7392425;19;20134;-77
2022/06/19 10:33:13;;;;;;;7.13;3.80;;;34.90;60.60;;;;;;7390484;19;20458;-76
2022/06/19 10:35:52;;;;;;;9.50;3.95;;;35.00;59.90;;;;;;7390297;19;20154;-75
2022/06/19 10:38:54;;;;;;;8.90;3.13;;;35.00;58.90;;;;;;7388606;19;20157;-77
2022/06/19 10:42:04;;;;;;;9.88;4.00;;;34.90;59.30;;;;;;7390412;19;20142;-77
2022/06/19 10:45:04;;;;;;;7.10;3.58;;;34.60;59.70;;;;;;7393962;19;20141;-77
2022/06/19 10:47:35;;;;;;;9.32;3.45;;;34.50;60.00;;;;;;7390583;19;20134;-79
2022/06/19 10:50:04;;;;;;;7.28;3.85;;;34.70;60.10;;;;;;7388468;19;20167;-80
2022/06/19 10:52:47;;;;;;;7.60;3.40;;;34.90;60.20;;;;;;7387755;19;20153;-76
2022/06/19 10:55:26;;;;;;;6.93;3.90;;;34.90;60.30;;;;;;7388500;19;20133;-77
2022/06/19 10:58:11;;;;;;;12.40;4.07;;;35.10;59.80;;;;;;7384626;19;20911;-78
2022/06/19 11:00:38;;;;;;;13.05;4.10;;;35.10;60.00;;;;;;7387516;19;20135;-78
2022/06/19 11:06:11;;;;;;;7.07;3.60;;;34.80;59.80;;;;;;7392007;19;20249;-83
2022/06/19 11:08:39;;;;;;;9.55;4.00;;;34.80;60.30;;;;;;7386797;19;20138;-77
2022/06/19 11:11:06;;;;;;;6.68;3.65;;;34.70;60.30;;;;;;7389048;19;20551;-77
2022/06/19 11:13:59;;;;;;;7.55;3.33;;;34.80;59.10;;;;;;7387890;19;20154;-81
2022/06/19 11:16:26;;;;;;;10.05;3.42;;;35.00;58.80;;;;;;7392487;19;20150;-80
2022/06/19 11:18:54;;;;;;;14.20;4.28;;;34.90;59.10;;;;;;7388164;19;20131;-80
2022/06/19 11:21:28;;;;;;;5.93;3.60;;;34.80;58.90;;;;;;7385817;19;20665;-78
2022/06/19 11:23:57;;;;;;;7.50;3.67;;;34.90;59.70;;;;;;7387326;19;20131;-77
2022/06/19 11:26:45;;;;;;;8.85;3.40;;;34.90;59.50;;;;;;7387949;19;20189;-78
2022/06/19 11:29:13;;;;;;;8.23;3.15;;;35.00;58.60;;;;;;7391716;19;20147;-80
2022/06/19 11:32:04;;;;;;;7.38;3.63;;;35.00;58.10;;;;;;7386271;19;20159;-80
2022/06/19 11:34:50;;;;;;;6.47;3.85;;;35.10;58.50;;;;;;7392320;19;20154;-80
2022/06/19 11:37:51;;;;;;;7.35;3.78;;;35.10;59.00;;;;;;7396287;19;20122;-81
2022/06/19 11:40:40;;;;;;;9.68;3.38;;;35.00;57.70;;;;;;7394431;19;20163;-79
2022/06/19 11:43:25;;;;;;;14.27;3.38;;;35.00;58.20;;;;;;7399040;19;20638;-77
2022/06/19 11:46:00;;;;;;;9.77;3.38;;;35.00;58.00;;;;;;7401935;19;20143;-79
2022/06/19 11:48:26;;;;;;;5.75;3.88;;;35.00;57.80;;;;;;7399129;19;20128;-78
2022/06/19 11:50:54;;;;;;;9.68;3.58;;;35.20;57.40;;;;;;7397994;19;20220;-77
2022/06/19 11:53:35;;;;;;;6.82;3.22;;;35.20;57.00;;;;;;7399690;19;20225;-78
2022/06/19 11:56:21;;;;;;;5.47;3.50;;;35.30;56.90;;;;;;7394340;19;20142;-79
2022/06/19 11:58:56;;;;;;;10.35;3.55;;;35.30;56.90;;;;;;7393023;19;20146;-77
2022/06/19 12:01:33;;;;;;;8.32;3.60;;;35.30;57.50;;;;;;7393797;19;20162;-76
2022/06/19 12:04:00;;;;;;;5.45;3.75;;;35.20;57.40;;;;;;7392814;19;20503;-76
2022/06/19 12:07:01;;;;;;;6.82;3.42;;;35.20;57.30;;;;;;7391698;19;20134;-76
2022/06/19 12:09:37;;;;;;;8.70;4.20;;;35.20;57.30;;;;;;7392337;19;20146;-77
2022/06/19 12:12:06;;;;;;;11.30;3.50;;;35.10;58.10;;;;;;7394150;19;20167;-77
2022/06/19 12:14:51;;;;;;;10.00;3.70;;;35.10;57.60;;;;;;7395754;19;20138;-75
2022/06/19 12:17:32;;;;;;;9.48;3.53;;;35.20;56.70;;;;;;7395359;19;20142;-78
2022/06/19 12:19:58;;;;;;;14.43;3.70;;;35.20;56.80;;;;;;7392368;19;20233;-79
2022/06/19 12:22:46;;;;;;;12.50;6.30;;;35.20;56.70;;;;;;7395843;19;20138;-78
2022/06/19 12:25:34;;;;;;;8.60;3.35;;;35.20;56.80;;;;;;7393873;19;20150;-78
2022/06/19 12:28:12;;;;;;;7.60;3.63;;;35.10;57.20;;;;;;7398413;19;20138;-78
2022/06/19 12:30:40;;;;;;;8.38;3.58;;;35.20;56.90;;;;;;7402896;19;20150;-77
2022/06/19 12:33:20;;;;;;;5.55;4.05;;;35.20;57.30;;;;;;7394993;19;20175;-76
2022/06/19 12:35:48;;;;;;;9.82;3.95;;;35.30;57.00;;;;;;7393771;19;20157;-78
2022/06/19 12:38:17;;;;;;;15.48;5.28;;;35.20;57.40;;;;;;7396257;19;20127;-78
2022/06/19 12:41:00;;;;;;;9.88;4.00;;;35.30;57.40;;;;;;7387591;19;20383;-76
2022/06/19 12:43:45;;;;;;;7.18;3.60;;;35.20;57.10;;;;;;7394526;19;20213;-76
2022/06/19 12:46:31;;;;;;;10.65;3.42;;;35.30;57.10;;;;;;7391668;19;20142;-77
2022/06/19 12:49:23;;;;;;;10.20;4.45;;;35.30;57.00;;;;;;7393822;19;20497;-76
2022/06/19 12:52:03;;;;;;;9.70;3.72;;;35.30;56.80;;;;;;7393706;19;20138;-75
2022/06/19 12:54:54;;;;;;;9.52;4.50;;;35.20;57.00;;;;;;7396078;19;20163;-75
2022/06/19 12:57:23;;;;;;;6.90;3.55;;;35.20;56.90;;;;;;7395878;19;20151;-77
2022/06/19 12:59:59;;;;;;;7.10;3.05;;;35.20;57.00;;;;;;7400436;19;20139;-76
2022/06/19 13:03:00;;;;;;;9.98;3.72;;;35.30;56.30;;;;;;7394460;19;20210;-75
2022/06/19 13:05:56;;;;;;;5.13;3.33;;;35.30;55.90;;;;;;7390237;19;20178;-75
2022/06/19 13:08:36;;;;;;;8.32;3.38;;;35.40;56.20;;;;;;7392802;19;20230;-76
2022/06/19 13:11:15;;;;;;;11.10;3.67;;;35.50;56.30;;;;;;7390469;19;20142;-76
2022/06/19 13:14:01;;;;;;;7.07;3.65;;;35.40;56.40;;;;;;7388339;19;20154;-76
2022/06/19 13:16:34;;;;;;;10.38;3.40;;;35.40;56.40;;;;;;7384340;19;20177;-77
2022/06/19 13:19:16;;;;;;;6.70;3.88;;;35.30;57.20;;;;;;7379927;19;20519;-77
2022/06/19 13:21:47;;;;;;;9.23;3.58;;;35.30;56.60;;;;;;7381442;19;20146;-76
2022/06/19 13:24:35;;;;;;;8.48;3.28;;;35.30;56.40;;;;;;7382769;19;20142;-78